createdAt,value
2022-10-13T00:02:26.734Z,100751.88
2022-10-13T00:04:53.797Z,100750.69
2022-10-13T00:07:20.329Z,100754.66
2022-10-13T00:09:48.067Z,100759.91
2022-10-13T00:12:39.839Z,100744.66
2022-10-13T00:15:10.229Z,100744.25
2022-10-13T00:17:37.743Z,100749.69
2022-10-13T00:20:05.631Z,100747.06
2022-10-13T00:22:33.330Z,100747.06
2022-10-13T00:25:00.363Z,100749.88
2022-10-13T00:27:30.520Z,100748.25
2022-10-13T00:29:57.735Z,100743.03
2022-10-13T00:32:25.149Z,100739.03
2022-10-13T00:35:16.162Z,100743.84
2022-10-13T00:37:42.900Z,100739.84
2022-10-13T00:40:10.371Z,100747.03
2022-10-13T00:42:37.983Z,100747.88
2022-10-13T00:45:27.834Z,100748.25
2022-10-13T00:48:01.294Z,100743.66
2022-10-13T00:50:31.999Z,100746.66
2022-10-13T00:53:02.943Z,100740.25
2022-10-13T00:55:31.792Z,100742.66
2022-10-13T00:58:05.081Z,100752.28
2022-10-13T01:00:34.147Z,100738.22
2022-10-13T01:03:02.071Z,100735.81
2022-10-13T01:05:29.488Z,100743.03
2022-10-13T01:07:56.898Z,100737.03
2022-10-13T01:10:47.362Z,100738.00
2022-10-13T01:13:22.137Z,100735.78
2022-10-13T01:15:52.097Z,100734.13
2022-10-13T01:18:39.510Z,100728.31
2022-10-13T01:21:09.946Z,100728.09
2022-10-13T01:23:37.242Z,100730.50
2022-10-13T01:26:14.286Z,100722.41
2022-10-13T01:28:53.683Z,100730.41
2022-10-13T01:31:23.441Z,100734.03
2022-10-13T01:33:57.039Z,100736.44
2022-10-13T01:36:24.486Z,100735.16
2022-10-13T01:38:51.029Z,100718.78
2022-10-13T01:41:30.726Z,100724.16
2022-10-13T01:44:01.728Z,100719.53
2022-10-13T01:46:31.511Z,100715.50
2022-10-13T01:49:00.097Z,100715.09
2022-10-13T01:51:29.396Z,100712.28
2022-10-13T01:53:56.734Z,100715.44
2022-10-13T01:56:23.514Z,100710.25
2022-10-13T01:58:52.542Z,100682.50
2022-10-13T02:01:31.756Z,100703.56
2022-10-13T02:04:01.371Z,100701.13
2022-10-13T02:06:32.614Z,100705.34
2022-10-13T02:09:05.248Z,100701.72
2022-10-13T02:11:32.688Z,100700.31
2022-10-13T02:14:18.672Z,100693.28
2022-10-13T02:16:45.793Z,100691.47
2022-10-13T02:19:15.160Z,100688.44
2022-10-13T02:22:07.520Z,100686.81
2022-10-13T02:24:34.793Z,100681.41
2022-10-13T02:27:01.614Z,100684.34
2022-10-13T02:29:28.977Z,100681.16
2022-10-13T02:31:56.173Z,100685.56
2022-10-13T02:34:23.397Z,100689.16
2022-10-13T02:36:50.262Z,100680.75
2022-10-13T02:39:18.277Z,100677.88
2022-10-13T02:41:45.197Z,100675.91
2022-10-13T02:44:12.337Z,100677.16
2022-10-13T02:46:42.384Z,100656.66
2022-10-13T02:49:10.862Z,100677.53
2022-10-13T02:51:40.308Z,100673.94
2022-10-13T02:54:07.755Z,100677.53
2022-10-13T02:56:35.047Z,100676.38
2022-10-13T02:59:27.379Z,100678.16
2022-10-13T03:01:55.129Z,100676.97
2022-10-13T03:04:23.488Z,100681.88
2022-10-13T03:06:53.344Z,100680.94
2022-10-13T03:09:21.917Z,100676.34
2022-10-13T03:11:50.774Z,100683.91
2022-10-13T03:14:18.559Z,100684.50
2022-10-13T03:16:45.446Z,100688.13
2022-10-13T03:19:12.501Z,100684.47
2022-10-13T03:21:40.366Z,100693.06
2022-10-13T03:24:07.010Z,100681.06
2022-10-13T03:26:35.460Z,100681.84
2022-10-13T03:29:03.141Z,100695.91
2022-10-13T03:31:31.853Z,100685.28
2022-10-13T03:34:05.177Z,100695.06
2022-10-13T03:36:32.279Z,100689.06
2022-10-13T03:38:59.817Z,100684.06
2022-10-13T03:41:26.632Z,100682.72
2022-10-13T03:46:45.931Z,100689.09
2022-10-13T03:49:12.852Z,100686.25
2022-10-13T03:51:40.332Z,100683.06
2022-10-13T03:54:07.904Z,100683.06
2022-10-13T03:56:35.912Z,100684.47
2022-10-13T03:59:05.371Z,100688.63
2022-10-13T04:02:38.039Z,100679.00
2022-10-13T04:05:04.927Z,100682.56
2022-10-13T04:07:31.969Z,100680.59
2022-10-13T04:09:58.892Z,100675.28
2022-10-13T04:12:25.941Z,100672.97
2022-10-13T04:14:54.780Z,100669.19
2022-10-13T04:17:21.621Z,100675.72
2022-10-13T04:19:50.488Z,100664.66
2022-10-13T04:22:17.574Z,100668.97
2022-10-13T04:24:49.150Z,100665.94
2022-10-13T04:27:19.084Z,100669.72
2022-10-13T04:29:47.069Z,100678.31
2022-10-13T04:35:05.931Z,100677.09
2022-10-13T04:37:34.078Z,100674.66
2022-10-13T04:40:01.867Z,100679.25
2022-10-13T04:42:30.459Z,100677.84
2022-10-13T04:44:57.642Z,100675.06
2022-10-13T04:47:24.370Z,100673.06
2022-10-13T04:49:51.700Z,100677.09
2022-10-13T04:52:18.452Z,100675.06
2022-10-13T04:54:47.207Z,100681.47
2022-10-13T04:57:13.955Z,100677.03
2022-10-13T05:00:07.421Z,100679.25
2022-10-13T05:02:37.451Z,100670.22
2022-10-13T05:05:04.854Z,100673.06
2022-10-13T05:07:32.204Z,100673.06
2022-10-13T05:10:24.522Z,100673.22
2022-10-13T05:12:51.545Z,100675.66
2022-10-13T05:15:18.866Z,100675.25
2022-10-13T05:17:47.653Z,100681.47
2022-10-13T05:20:14.707Z,100678.06
2022-10-13T05:22:41.995Z,100677.72
2022-10-13T05:27:39.073Z,100679.56
2022-10-13T05:30:09.516Z,100680.19
2022-10-13T05:32:37.054Z,100679.63
2022-10-13T05:35:04.137Z,100678.75
2022-10-13T05:37:31.449Z,100678.84
2022-10-13T05:39:58.198Z,100681.31
2022-10-13T05:42:25.628Z,100682.94
2022-10-13T05:44:52.522Z,100684.19
2022-10-13T05:47:20.539Z,100687.41
2022-10-13T05:49:47.272Z,100687.00
2022-10-13T05:52:15.250Z,100686.16
2022-10-13T05:54:47.144Z,100679.00
2022-10-13T05:57:19.871Z,100681.59
2022-10-13T05:59:53.628Z,100686.47
2022-10-13T06:02:21.690Z,100685.09
2022-10-13T06:04:52.523Z,100691.47
2022-10-13T06:07:20.816Z,100690.59
2022-10-13T06:09:48.106Z,100695.41
2022-10-13T06:12:16.781Z,100705.47
2022-10-13T06:14:43.486Z,100701.28
2022-10-13T06:17:13.020Z,100701.84
2022-10-13T06:19:42.986Z,100703.97
2022-10-13T06:22:10.067Z,100704.19
2022-10-13T06:24:37.324Z,100706.16
2022-10-13T06:27:08.735Z,100704.28
2022-10-13T06:29:36.553Z,100712.53
2022-10-13T06:32:03.503Z,100708.41
2022-10-13T06:34:32.723Z,100706.50
2022-10-13T06:36:59.544Z,100716.94
2022-10-13T06:39:26.780Z,100713.78
2022-10-13T06:41:55.406Z,100706.75
2022-10-13T06:44:30.946Z,100707.34
2022-10-13T06:47:03.152Z,100705.53
2022-10-13T06:49:31.591Z,100711.53
2022-10-13T06:51:59.311Z,100707.75
2022-10-13T06:54:26.331Z,100703.69
2022-10-13T06:56:53.961Z,100706.47
2022-10-13T06:59:21.287Z,100707.81
2022-10-13T07:01:49.842Z,100706.22
2022-10-13T07:04:17.672Z,100708.75
2022-10-13T07:06:45.277Z,100701.13
2022-10-13T07:09:12.087Z,100703.91
2022-10-13T07:11:39.426Z,100709.47
2022-10-13T07:14:06.958Z,100699.34
2022-10-13T07:16:34.127Z,100708.53
2022-10-13T07:19:01.967Z,100710.59
2022-10-13T07:21:30.276Z,100707.09
2022-10-13T07:23:58.233Z,100706.41
2022-10-13T07:26:25.668Z,100707.13
2022-10-13T07:28:53.647Z,100702.09
2022-10-13T07:31:21.149Z,100712.34
2022-10-13T07:33:49.909Z,100705.00
2022-10-13T07:36:18.030Z,100703.34
2022-10-13T07:38:45.565Z,100705.19
2022-10-13T07:41:13.219Z,100702.06
2022-10-13T07:43:40.725Z,100697.16
2022-10-13T07:46:08.462Z,100698.78
2022-10-13T07:48:59.685Z,100693.06
2022-10-13T07:51:26.612Z,100687.00
2022-10-13T07:53:54.640Z,100689.34
2022-10-13T07:56:46.622Z,100688.66
2022-10-13T07:59:14.252Z,100691.41
2022-10-13T08:01:41.825Z,100682.66
2022-10-13T08:04:08.982Z,100685.06
2022-10-13T08:06:36.106Z,100692.53
2022-10-13T08:09:04.416Z,100684.84
2022-10-13T08:11:31.383Z,100681.63
2022-10-13T08:14:01.204Z,100681.56
2022-10-13T08:16:28.975Z,100683.25
2022-10-13T08:18:57.334Z,100686.50
2022-10-13T08:21:53.221Z,100696.19
2022-10-13T08:24:14.251Z,100696.63
2022-10-13T08:26:41.520Z,100693.22
2022-10-13T08:29:26.519Z,100678.09
2022-10-13T08:31:55.852Z,100684.09
2022-10-13T08:34:24.062Z,100670.28
2022-10-13T08:36:53.840Z,100680.03
2022-10-13T08:39:22.860Z,100678.50
2022-10-13T08:41:50.007Z,100684.22
2022-10-13T08:47:14.063Z,100678.13
2022-10-13T08:49:42.655Z,100674.66
2022-10-13T08:52:16.892Z,100684.53
2022-10-13T08:54:44.387Z,100676.31
2022-10-13T08:57:11.566Z,100674.72
2022-10-13T08:59:38.468Z,100672.34
2022-10-13T09:02:16.424Z,100670.47
2022-10-13T09:04:46.685Z,100666.84
2022-10-13T09:07:26.338Z,100671.19
2022-10-13T09:10:18.879Z,100666.41
2022-10-13T09:12:46.958Z,100672.34
2022-10-13T09:15:14.032Z,100677.13
2022-10-13T09:17:43.434Z,100684.22
2022-10-13T09:20:24.750Z,100676.75
2022-10-13T09:23:02.221Z,100677.88
2022-10-13T09:25:29.593Z,100682.06
2022-10-13T09:27:58.107Z,100682.41
2022-10-13T09:30:42.600Z,100665.97
2022-10-13T09:33:09.519Z,100671.59
2022-10-13T09:36:01.227Z,100673.25
2022-10-13T09:38:28.870Z,100669.84
2022-10-13T09:41:12.671Z,100669.59
2022-10-13T09:46:55.661Z,100666.22
2022-10-13T09:49:40.042Z,100665.66
2022-10-13T09:52:13.256Z,100667.56
2022-10-13T09:54:40.053Z,100676.00
2022-10-13T09:57:14.852Z,100665.66
2022-10-13T09:59:45.700Z,100658.63
2022-10-13T10:02:18.172Z,100665.47
2022-10-13T10:04:47.598Z,100663.53
2022-10-13T10:07:18.823Z,100663.88
2022-10-13T10:09:47.819Z,100650.66
2022-10-13T10:12:22.887Z,100649.97
2022-10-13T10:14:52.624Z,100647.13
2022-10-13T10:17:32.376Z,100651.94
2022-10-13T10:20:17.792Z,100651.22
2022-10-13T10:23:01.944Z,100648.22
2022-10-13T10:25:33.351Z,100648.03
2022-10-13T10:28:15.663Z,100646.06
2022-10-13T10:31:01.924Z,100644.84
2022-10-13T10:33:35.430Z,100645.28
2022-10-13T10:36:09.164Z,100643.09
2022-10-13T10:38:39.384Z,100645.81
2022-10-13T10:41:32.672Z,100635.41
2022-10-13T10:44:04.834Z,100629.00
2022-10-13T10:46:36.659Z,100632.53
2022-10-13T10:49:12.763Z,100623.25
2022-10-13T10:51:39.775Z,100626.25
2022-10-13T10:54:07.183Z,100621.44
2022-10-13T10:56:33.996Z,100619.22
2022-10-13T10:59:03.394Z,100616.47
2022-10-13T11:01:51.029Z,100612.31
2022-10-13T11:04:36.221Z,100618.81
2022-10-13T11:07:04.639Z,100608.47
2022-10-13T11:09:43.529Z,100605.44
2022-10-13T11:12:47.333Z,100600.69
2022-10-13T11:15:17.299Z,100601.16
2022-10-13T11:17:44.697Z,100594.28
2022-10-13T11:20:21.098Z,100586.63
2022-10-13T11:22:58.115Z,100585.25
2022-10-13T11:25:42.619Z,100581.06
2022-10-13T11:28:32.416Z,100575.75
2022-10-13T11:31:05.968Z,100575.38
2022-10-13T11:33:52.345Z,100577.31
2022-10-13T11:36:40.004Z,100569.59
2022-10-13T11:39:07.118Z,100560.25
2022-10-13T11:41:49.157Z,100559.63
2022-10-13T11:44:22.139Z,100555.03
2022-10-13T11:46:50.321Z,100560.84
2022-10-13T11:49:17.646Z,100548.84
2022-10-13T11:52:04.012Z,100551.09
2022-10-13T11:54:34.569Z,100546.06
2022-10-13T11:57:05.237Z,100540.72
2022-10-13T11:59:33.892Z,100539.22
2022-10-13T12:02:12.446Z,100520.75
2022-10-13T12:04:45.573Z,100532.41
2022-10-13T12:07:15.983Z,100532.16
2022-10-13T12:09:50.073Z,100533.75
2022-10-13T12:12:19.681Z,100531.00
2022-10-13T12:14:50.810Z,100526.63
2022-10-13T12:17:27.689Z,100523.75
2022-10-13T12:19:58.177Z,100517.19
2022-10-13T12:25:17.886Z,100518.66
2022-10-13T12:27:51.076Z,100508.78
2022-10-13T12:33:20.791Z,100500.44
2022-10-13T12:35:47.513Z,100495.72
2022-10-13T12:38:20.850Z,100500.97
2022-10-13T12:41:14.944Z,100490.47
2022-10-13T12:43:43.039Z,100486.22
2022-10-13T12:46:10.040Z,100496.78
2022-10-13T12:48:38.463Z,100487.22
2022-10-13T12:51:17.617Z,100492.59
2022-10-13T12:53:45.769Z,100488.44
2022-10-13T12:56:24.311Z,100475.69
2022-10-13T12:58:51.581Z,100483.78
2022-10-13T13:01:27.270Z,100483.69
2022-10-13T13:03:55.510Z,100486.00
2022-10-13T13:06:24.919Z,100480.53
2022-10-13T13:09:12.407Z,100479.84
2022-10-13T13:11:39.374Z,100474.16
2022-10-13T13:14:23.228Z,100464.38
2022-10-13T13:17:04.073Z,100468.50
2022-10-13T13:19:31.660Z,100464.88
2022-10-13T13:21:58.255Z,100467.47
2022-10-13T13:24:36.023Z,100463.59
2022-10-13T13:27:22.800Z,100460.50
2022-10-13T13:29:50.344Z,100445.13
2022-10-13T13:32:20.102Z,100448.06
2022-10-13T13:34:49.193Z,100450.91
2022-10-13T13:37:16.455Z,100439.88
2022-10-13T13:39:43.554Z,100445.81
2022-10-13T13:42:13.461Z,100450.25
2022-10-13T13:44:43.752Z,100448.44
2022-10-13T13:47:24.315Z,100446.16
2022-10-13T13:49:51.966Z,100440.28
2022-10-13T13:52:19.679Z,100440.81
2022-10-13T13:54:46.533Z,100442.13
2022-10-13T13:57:14.807Z,100437.31
2022-10-13T14:00:06.589Z,100438.09
2022-10-13T14:02:39.095Z,100435.63
2022-10-13T14:05:07.603Z,100435.78
2022-10-13T14:07:35.217Z,100429.88
2022-10-13T14:10:02.621Z,100434.78
2022-10-13T14:12:54.450Z,100429.72
2022-10-13T14:15:28.685Z,100434.84
2022-10-13T14:18:24.736Z,100431.28
2022-10-13T14:20:56.084Z,100424.53
2022-10-13T14:23:23.168Z,100422.13
2022-10-13T14:25:50.256Z,100420.91
2022-10-13T14:28:18.594Z,100422.09
2022-10-13T14:30:46.003Z,100421.53
2022-10-13T14:36:07.782Z,100413.19
2022-10-13T14:38:59.774Z,100405.91
2022-10-13T14:41:26.646Z,100411.59
2022-10-13T14:43:54.673Z,100404.19
2022-10-13T14:46:22.307Z,100404.09
2022-10-13T14:48:50.101Z,100404.56
2022-10-13T14:51:19.790Z,100403.44
2022-10-13T14:53:47.216Z,100409.16
2022-10-13T14:56:16.162Z,100398.44
2022-10-13T14:58:50.447Z,100402.75
2022-10-13T15:01:20.317Z,100402.69
2022-10-13T15:03:47.343Z,100398.75
2022-10-13T15:06:15.656Z,100398.63
2022-10-13T15:08:42.917Z,100399.41
2022-10-13T15:11:11.281Z,100391.31
2022-10-13T15:13:38.689Z,100393.69
2022-10-13T15:16:06.128Z,100387.28
2022-10-13T15:18:35.427Z,100386.31
2022-10-13T15:21:02.187Z,100391.41
2022-10-13T15:26:20.238Z,100380.88
2022-10-13T15:28:49.065Z,100384.09
2022-10-13T15:31:17.068Z,100380.78
2022-10-13T15:33:53.957Z,100384.38
2022-10-13T15:36:45.766Z,100381.09
2022-10-13T15:39:14.357Z,100384.63
2022-10-13T15:41:42.948Z,100380.31
2022-10-13T15:44:10.260Z,100372.56
2022-10-13T15:46:45.247Z,100375.09
2022-10-13T15:49:20.734Z,100373.63
2022-10-13T15:51:48.308Z,100370.56
2022-10-13T15:54:17.691Z,100373.06
2022-10-13T15:56:44.481Z,100364.44
2022-10-13T15:59:12.882Z,100375.34
2022-10-13T16:02:03.905Z,100376.75
2022-10-13T16:04:57.032Z,100369.19
2022-10-13T16:07:24.107Z,100366.44
2022-10-13T16:09:52.007Z,100369.75
2022-10-13T16:12:18.880Z,100369.63
2022-10-13T16:14:46.359Z,100361.44
2022-10-13T16:17:13.246Z,100364.28
2022-10-13T16:19:39.970Z,100371.91
2022-10-13T16:22:08.748Z,100370.31
2022-10-13T16:24:36.409Z,100373.94
2022-10-13T16:27:04.707Z,100368.50
2022-10-13T16:29:33.816Z,100365.09
2022-10-13T16:32:00.629Z,100359.84
2022-10-13T16:34:28.183Z,100370.69
2022-10-13T16:36:54.800Z,100373.03
2022-10-13T16:39:24.517Z,100366.00
2022-10-13T16:41:51.979Z,100379.44
2022-10-13T16:44:43.551Z,100375.00
2022-10-13T16:47:13.631Z,100371.03
2022-10-13T16:49:44.364Z,100366.47
2022-10-13T16:52:11.491Z,100375.09
2022-10-13T16:54:38.240Z,100373.50
2022-10-13T16:57:06.422Z,100369.78
2022-10-13T16:59:35.760Z,100373.81
2022-10-13T17:02:03.419Z,100378.38
2022-10-13T17:04:31.145Z,100373.47
2022-10-13T17:06:58.321Z,100371.16
2022-10-13T17:09:25.432Z,100373.88
2022-10-13T17:11:52.154Z,100378.19
2022-10-13T17:14:19.346Z,100375.63
2022-10-13T17:16:46.091Z,100371.09
2022-10-13T17:19:13.108Z,100374.56
2022-10-13T17:21:39.976Z,100378.31
2022-10-13T17:24:08.897Z,100363.59
2022-10-13T17:26:35.576Z,100370.59
2022-10-13T17:29:03.331Z,100367.53
2022-10-13T17:31:30.352Z,100367.38
2022-10-13T17:33:57.310Z,100370.88
2022-10-13T17:36:29.707Z,100373.75
2022-10-13T17:39:46.118Z,100370.41
2022-10-13T17:42:13.596Z,100376.88
2022-10-13T17:44:42.202Z,100371.72
2022-10-13T17:47:11.187Z,100371.56
2022-10-13T17:49:39.208Z,100371.41
2022-10-13T17:52:05.869Z,100378.91
2022-10-13T17:54:33.769Z,100375.91
2022-10-13T17:57:00.400Z,100379.38
2022-10-13T17:59:28.150Z,100375.41
2022-10-13T18:01:56.101Z,100374.19
2022-10-13T18:04:23.664Z,100370.66
2022-10-13T18:09:42.565Z,100370.47
2022-10-13T18:12:34.311Z,100369.13
2022-10-13T18:15:01.425Z,100369.75
2022-10-13T18:17:31.751Z,100371.16
2022-10-13T18:19:58.724Z,100371.38
2022-10-13T18:22:25.875Z,100369.22
2022-10-13T18:24:57.093Z,100368.88
2022-10-13T18:30:19.941Z,100368.91
2022-10-13T18:32:49.544Z,100364.91
2022-10-13T18:35:16.422Z,100367.72
2022-10-13T18:37:44.465Z,100362.91
2022-10-13T18:40:11.593Z,100361.91
2022-10-13T18:42:38.325Z,100354.28
2022-10-13T18:45:05.137Z,100360.50
2022-10-13T18:47:33.636Z,100356.31
2022-10-13T18:50:01.247Z,100357.91
2022-10-13T18:52:29.714Z,100352.31
2022-10-13T18:54:57.222Z,100356.16
2022-10-13T18:57:24.315Z,100356.56
2022-10-13T18:59:51.756Z,100356.56
2022-10-13T19:05:17.025Z,100357.66
2022-10-13T19:07:44.388Z,100358.31
2022-10-13T19:10:11.774Z,100352.28
2022-10-13T19:12:42.413Z,100352.69
2022-10-13T19:15:09.578Z,100364.72
2022-10-13T19:17:36.838Z,100359.50
2022-10-13T19:20:03.979Z,100357.53
2022-10-13T19:22:32.280Z,100354.56
2022-10-13T19:25:00.928Z,100352.34
2022-10-13T19:27:54.076Z,100356.41
2022-10-13T19:30:20.939Z,100354.19
2022-10-13T19:33:15.025Z,100356.41
2022-10-13T19:35:48.795Z,100356.41
2022-10-13T19:38:18.636Z,100361.81
2022-10-13T19:40:49.774Z,100362.25
2022-10-13T19:43:19.837Z,100363.28
2022-10-13T19:49:05.366Z,100377.31
2022-10-13T19:51:33.084Z,100374.06
2022-10-13T19:54:00.463Z,100372.91
2022-10-13T19:56:28.516Z,100365.44
2022-10-13T19:58:55.629Z,100362.41
2022-10-13T20:01:22.998Z,100358.22
2022-10-13T20:04:15.925Z,100362.63
2022-10-13T20:06:45.604Z,100371.66
2022-10-13T20:09:12.609Z,100370.09
2022-10-13T20:11:39.586Z,100375.72
2022-10-13T20:14:06.876Z,100378.72
2022-10-13T20:16:37.286Z,100367.31
2022-10-13T20:19:04.853Z,100374.34
2022-10-13T20:21:31.746Z,100369.50
2022-10-13T20:26:54.175Z,100369.75
2022-10-13T20:29:22.739Z,100366.56
2022-10-13T20:31:51.707Z,100362.19
2022-10-13T20:34:19.939Z,100355.31
2022-10-13T20:36:46.487Z,100361.34
2022-10-13T20:39:13.703Z,100358.94
2022-10-13T20:41:41.509Z,100363.53
2022-10-13T20:44:09.982Z,100365.34
2022-10-13T20:46:37.181Z,100362.38
2022-10-13T20:49:10.916Z,100355.16
2022-10-13T20:51:39.190Z,100356.75
2022-10-13T20:54:06.269Z,100353.97
2022-10-13T20:56:34.022Z,100354.56
2022-10-13T20:59:05.486Z,100352.97
2022-10-13T21:01:32.842Z,100340.13
2022-10-13T21:04:00.090Z,100344.75
2022-10-13T21:06:27.311Z,100340.53
2022-10-13T21:08:56.403Z,100334.75
2022-10-13T21:11:24.906Z,100335.34
2022-10-13T21:13:52.179Z,100341.75
2022-10-13T21:16:21.871Z,100339.94
2022-10-13T21:18:50.012Z,100340.75
2022-10-13T21:21:22.250Z,100337.34
2022-10-13T21:23:51.493Z,100334.75
2022-10-13T21:26:21.693Z,100341.34
2022-10-13T21:28:49.416Z,100338.94
2022-10-13T21:31:17.747Z,100339.94
2022-10-13T21:33:44.490Z,100334.94
2022-10-13T21:36:12.162Z,100327.34
2022-10-13T21:38:39.579Z,100326.13
2022-10-13T21:41:08.340Z,100331.78
2022-10-13T21:43:35.220Z,100332.19
2022-10-13T21:46:16.858Z,100329.38
2022-10-13T21:48:44.486Z,100341.63
2022-10-13T21:51:16.065Z,100333.81
2022-10-13T21:53:42.995Z,100337.41
2022-10-13T21:56:12.055Z,100334.22
2022-10-13T21:59:04.966Z,100337.41
2022-10-13T22:01:31.847Z,100331.84
2022-10-13T22:04:00.681Z,100324.22
2022-10-13T22:06:28.718Z,100328.84
2022-10-13T22:08:56.666Z,100326.44
2022-10-13T22:11:27.525Z,100326.63
2022-10-13T22:13:55.725Z,100319.63
2022-10-13T22:16:24.956Z,100317.41
2022-10-13T22:18:52.774Z,100321.81
2022-10-13T22:21:22.515Z,100316.44
2022-10-13T22:23:49.597Z,100333.03
2022-10-13T22:26:19.474Z,100323.44
2022-10-13T22:28:51.524Z,100322.25
2022-10-13T22:31:18.877Z,100323.41
2022-10-13T22:33:45.774Z,100324.41
2022-10-13T22:36:18.373Z,100326.66
2022-10-13T22:38:47.511Z,100320.84
2022-10-13T22:41:39.343Z,100324.25
2022-10-13T22:44:06.263Z,100322.25
2022-10-13T22:46:35.087Z,100322.25
2022-10-13T22:49:03.402Z,100319.84
2022-10-13T22:51:32.784Z,100319.41
2022-10-13T22:53:59.975Z,100311.84
2022-10-13T22:56:31.444Z,100316.22
2022-10-13T22:59:00.651Z,100313.03
2022-10-13T23:01:28.174Z,100313.81
2022-10-13T23:03:57.953Z,100314.44
2022-10-13T23:06:29.207Z,100314.44
2022-10-13T23:08:56.354Z,100314.22
2022-10-13T23:11:23.611Z,100310.81
2022-10-13T23:13:50.380Z,100315.00
2022-10-13T23:16:19.073Z,100308.19
2022-10-13T23:18:46.025Z,100313.03
2022-10-13T23:21:24.261Z,100312.25
2022-10-13T23:23:55.910Z,100313.25
2022-10-13T23:26:24.054Z,100309.22
2022-10-13T23:28:52.627Z,100298.81
2022-10-13T23:31:19.589Z,100305.81
2022-10-13T23:33:47.701Z,100301.44
2022-10-13T23:36:16.756Z,100301.81
2022-10-13T23:38:48.449Z,100297.25
2022-10-13T23:41:16.093Z,100301.00
2022-10-13T23:43:44.458Z,100299.81
2022-10-13T23:46:11.860Z,100294.81
2022-10-13T23:48:40.028Z,100299.59
2022-10-13T23:51:14.105Z,100300.81
2022-10-13T23:54:05.967Z,100284.59
2022-10-13T23:56:33.068Z,100293.59
2022-10-13T23:59:01.036Z,100303.19
